Time;durP1;ratioP1;P1;durP2;ratioP2;P2;SDS_P1;SDS_P2;PMS_P1;PMS_P2;Temp;Humidity;BMP_temperature;BMP_pressure;BME280_temperature;BME280_humidity;BME280_pressure;Samples;Min_cycle;Max_cycle;Signal;HPM_P1;HPM_P2
2022/01/08 00:00:42;;;;;;;;;54.75;48.50;;;;;4.87;50.95;99493.66;5112346;27;8831;-77
2022/01/08 00:03:10;;;;;;;;;68.75;53.50;;;;;4.89;50.87;99504.03;5128710;27;9635;-80
2022/01/08 00:05:39;;;;;;;;;71.00;56.00;;;;;4.87;51.00;99511.75;5112200;27;8854;-80
2022/01/08 00:08:08;;;;;;;;;66.50;54.25;;;;;4.91;51.06;99492.00;5112059;27;8888;-77
2022/01/08 00:10:36;;;;;;;;;70.25;55.00;;;;;4.97;51.20;99492.16;5111948;27;8939;-78
2022/01/08 00:13:05;;;;;;;;;65.75;51.00;;;;;5.00;51.84;99486.19;5107207;28;8856;-82
2022/01/08 00:15:35;;;;;;;;;62.25;52.00;;;;;5.10;51.57;99487.22;5089946;28;9613;-77
2022/01/08 00:18:05;;;;;;;;;62.75;50.75;;;;;5.02;51.84;99480.19;5090400;28;8852;-77
2022/01/08 00:20:35;;;;;;;;;61.75;53.50;;;;;5.00;52.04;99486.19;5090087;28;8875;-77
2022/01/08 00:23:04;;;;;;;;;61.25;49.75;;;;;5.04;51.59;99480.22;5069747;28;8882;-77
2022/01/08 00:25:33;;;;;;;;;58.75;50.25;;;;;4.99;52.14;99481.84;5069833;28;8854;-77
2022/01/08 00:28:02;;;;;;;;;59.25;48.75;;;;;5.08;52.04;99482.91;5069836;28;8846;-78
2022/01/08 00:30:31;;;;;;;;;69.25;54.25;;;;;5.05;52.47;99476.81;5069931;28;8876;-76
2022/01/08 00:32:59;;;;;;;;;62.75;51.00;;;;;5.08;52.79;99484.63;5069781;28;8940;-77
2022/01/08 00:35:31;;;;;;;;;71.75;56.50;;;;;5.04;53.30;99475.91;5070001;28;9669;-75
2022/01/08 00:38:01;;;;;;;;;63.00;53.75;;;;;5.00;53.86;99481.00;5053124;28;9034;-76
2022/01/08 00:40:30;;;;;;;;;44.50;40.50;;;;;5.06;53.66;99482.00;5069759;28;8861;-78
2022/01/08 00:42:58;;;;;;;;;58.25;47.00;;;;;5.06;54.09;99476.81;5069815;28;8990;-80
2022/01/08 00:45:27;;;;;;;;;60.25;51.75;;;;;5.10;54.18;99466.56;5053067;28;8834;-79
2022/01/08 00:47:55;;;;;;;;;66.00;52.50;;;;;5.19;53.68;99461.56;5086367;28;8841;-77
2022/01/08 00:50:24;;;;;;;;;66.00;52.50;;;;;5.05;55.08;99463.91;5093775;28;8937;-77
2022/01/08 00:52:54;;;;;;;;;70.25;54.00;;;;;5.14;54.89;99460.59;5106807;28;8847;-80
2022/01/08 00:55:23;;;;;;;;;63.75;51.75;;;;;5.17;55.45;99466.72;5106693;28;8843;-78
2022/01/08 00:57:51;;;;;;;;;65.75;52.75;;;;;5.25;55.49;99470.34;5073172;28;8945;-82
2022/01/08 01:00:20;;;;;;;;;69.25;54.00;;;;;5.33;55.37;99459.25;5084356;27;8853;-78
2022/01/08 01:02:49;;;;;;;;;68.25;51.50;;;;;5.20;56.19;99461.63;5114490;27;8869;-76
2022/01/08 01:05:19;;;;;;;;;62.25;52.00;;;;;5.20;56.40;99469.38;5132288;27;8843;-76
2022/01/08 01:07:48;;;;;;;;;42.75;42.25;;;;;5.21;56.71;99463.34;5132583;27;9917;-78
2022/01/08 01:10:18;;;;;;;;;67.00;52.25;;;;;5.25;56.79;99466.84;5097621;27;8827;-78
2022/01/08 01:12:47;;;;;;;;;64.00;53.25;;;;;5.08;57.61;99469.09;5132504;27;8843;-77
2022/01/08 01:15:19;;;;;;;;;63.75;49.50;;;;;5.07;57.79;99455.31;5115197;27;8849;-79
2022/01/08 01:17:48;;;;;;;;;63.00;51.75;;;;;5.06;57.98;99448.41;5131932;27;8951;-78
2022/01/08 01:20:20;;;;;;;;;66.50;53.50;;;;;4.99;58.65;99466.31;5114385;27;8839;-76
2022/01/08 01:22:55;;;;;;;;;62.00;50.25;;;;;5.05;57.90;99449.25;5115107;27;8831;-78
2022/01/08 01:25:31;;;;;;;;;66.00;52.00;;;;;5.16;57.73;99456.34;5115059;27;8859;-78
2022/01/08 01:28:12;;;;;;;;;63.00;48.50;;;;;5.18;58.06;99450.38;5133111;27;8843;-77
2022/01/08 01:42:16;;;;;;;;;56.75;48.50;;;;;5.26;58.40;99445.34;5019334;28;8956;-79
2022/01/08 01:47:33;;;;;;;;;58.00;44.50;;;;;5.22;58.84;99452.16;5052592;28;8859;-78
2022/01/08 01:50:03;;;;;;;;;62.00;50.50;;;;;5.25;58.99;99438.41;5052434;28;8961;-77
2022/01/08 01:52:32;;;;;;;;;61.50;46.75;;;;;5.28;58.50;99435.91;5035790;28;8844;-78
2022/01/08 01:55:01;;;;;;;;;60.25;49.00;;;;;5.23;59.35;99429.75;5035574;28;8860;-77
2022/01/08 01:57:31;;;;;;;;;48.25;43.25;;;;;5.27;58.80;99429.88;5052272;28;9586;-78
2022/01/08 02:00:00;;;;;;;;;59.25;43.25;;;;;5.30;59.02;99420.44;5068689;28;8852;-78
2022/01/08 02:02:28;;;;;;;;;57.25;48.75;;;;;5.23;59.52;99422.88;5051940;28;8952;-76
2022/01/08 02:04:58;;;;;;;;;61.50;49.00;;;;;5.33;59.45;99421.34;5052429;28;8874;-76
2022/01/08 02:07:28;;;;;;;;;51.75;45.00;;;;;5.34;59.67;99417.06;5051872;28;8897;-76
2022/01/08 02:09:56;;;;;;;;;57.00;47.25;;;;;5.29;59.86;99419.53;5075462;27;8843;-78
2022/01/08 02:12:25;;;;;;;;;50.25;41.50;;;;;5.27;60.08;99410.88;5112539;27;8847;-79
2022/01/08 02:14:55;;;;;;;;;55.75;44.75;;;;;5.28;60.55;99410.06;5150152;27;8886;-78
2022/01/08 02:17:24;;;;;;;;;51.25;44.50;;;;;5.24;60.54;99409.13;5083290;27;8862;-78
2022/01/08 02:19:55;;;;;;;;;52.25;45.50;;;;;5.24;60.84;99408.25;5152915;27;8851;-81
2022/01/08 02:22:24;;;;;;;;;54.00;41.25;;;;;5.37;60.65;99404.16;5134344;27;8866;-78
2022/01/08 02:24:52;;;;;;;;;53.00;45.75;;;;;5.42;60.30;99398.22;5134381;27;8853;-78
2022/01/08 02:27:21;;;;;;;;;50.75;43.50;;;;;5.45;60.52;99398.28;5083451;27;9055;-77
2022/01/08 02:29:50;;;;;;;;;56.25;48.00;;;;;5.35;60.83;99398.09;5109084;28;8872;-79
2022/01/08 02:32:25;;;;;;;;;49.75;45.00;;;;;5.42;60.80;99395.63;5071575;28;8844;-77
2022/01/08 02:34:56;;;;;;;;;49.25;42.75;;;;;5.49;60.67;99391.47;5071724;28;9643;-78
2022/01/08 02:37:29;;;;;;;;;64.25;52.25;;;;;5.32;61.28;99383.41;5071987;28;8835;-78
2022/01/08 02:40:00;;;;;;;;;45.75;41.75;;;;;5.30;61.94;99386.81;5055079;28;8850;-77
2022/01/08 02:42:36;;;;;;;;;53.50;44.75;;;;;5.25;61.65;99385.03;5071329;28;9069;-78
2022/01/08 02:45:06;;;;;;;;;59.00;44.75;;;;;5.27;61.63;99378.16;5055430;28;8843;-77
2022/01/08 02:47:35;;;;;;;;;54.25;46.25;;;;;5.26;61.80;99380.72;5071341;28;9814;-77
2022/01/08 02:50:06;;;;;;;;;55.00;43.50;;;;;5.23;62.60;99378.06;5054820;28;8889;-77
2022/01/08 02:52:35;;;;;;;;;51.50;43.25;;;;;5.26;62.51;99386.75;5071438;28;8839;-78
2022/01/08 02:55:04;;;;;;;;;45.25;39.50;;;;;5.29;62.94;99383.34;5054854;28;8983;-79
2022/01/08 02:57:33;;;;;;;;;53.00;44.25;;;;;5.34;62.27;99386.88;5054713;28;8807;-78
2022/01/08 03:00:07;;;;;;;;;50.00;41.75;;;;;5.42;62.36;99390.47;5088059;28;8819;-78
2022/01/08 03:02:35;;;;;;;;;55.50;48.25;;;;;5.42;62.46;99381.84;5023674;28;8897;-76
2022/01/08 03:05:08;;;;;;;;;50.75;45.00;;;;;5.36;63.21;99381.75;5091347;28;8825;-77
2022/01/08 03:07:37;;;;;;;;;44.00;38.00;;;;;5.24;63.45;99374.66;5106460;27;8847;-76
2022/01/08 03:10:06;;;;;;;;;56.75;43.75;;;;;5.28;63.13;99366.09;5152099;27;8811;-76
2022/01/08 03:12:38;;;;;;;;;37.50;30.75;;;;;5.20;63.40;99370.28;5082476;27;8938;-77
2022/01/08 03:15:08;;;;;;;;;58.00;44.00;;;;;5.17;63.75;99357.28;5133215;27;8847;-79
2022/01/08 03:17:37;;;;;;;;;45.00;38.50;;;;;5.13;64.23;99361.53;5116321;27;8812;-79
2022/01/08 03:20:13;;;;;;;;;47.75;40.50;;;;;5.11;64.39;99359.75;5066006;27;8855;-80
2022/01/08 03:22:45;;;;;;;;;52.25;44.25;;;;;5.03;64.60;99364.78;5081690;27;8835;-81
2022/01/08 03:25:14;;;;;;;;;52.75;44.25;;;;;5.06;64.79;99373.44;5151549;27;8831;-78
2022/01/08 03:27:44;;;;;;;;;49.25;42.50;;;;;5.13;64.43;99378.75;5116464;27;8996;-79
2022/01/08 03:30:14;;;;;;;;;54.00;44.50;;;;;5.17;64.80;99368.47;5133870;27;8882;-79
2022/01/08 03:32:42;;;;;;;;;41.00;37.25;;;;;5.19;64.23;99365.94;5116075;27;8880;-76
2022/01/08 03:35:13;;;;;;;;;39.75;34.75;;;;;5.20;64.21;99358.22;5115997;27;8827;-80
2022/01/08 03:37:42;;;;;;;;;42.00;34.50;;;;;5.02;65.58;99356.16;5132688;27;8832;-79
2022/01/08 03:40:11;;;;;;;;;37.25;35.25;;;;;5.03;65.33;99360.50;5115978;27;8977;-77
2022/01/08 03:42:40;;;;;;;;;34.50;31.75;;;;;4.90;66.17;99366.28;5115922;27;9607;-77
2022/01/08 03:45:09;;;;;;;;;31.25;29.25;;;;;4.89;65.63;99352.44;5115781;27;8879;-77
2022/01/08 03:50:37;;;;;;;;;27.00;24.00;;;;;4.89;66.30;99351.59;5070350;28;8853;-80
2022/01/08 03:53:06;;;;;;;;;25.75;23.00;;;;;4.70;66.81;99355.53;5053635;28;8850;-79
2022/01/08 03:55:34;;;;;;;;;32.00;28.25;;;;;4.72;66.94;99345.25;5070221;28;8849;-77
2022/01/08 03:58:03;;;;;;;;;32.00;27.50;;;;;4.62;67.49;99341.59;5070436;28;8991;-80
2022/01/08 04:00:32;;;;;;;;;34.50;28.75;;;;;4.74;66.65;99346.13;5030621;28;8862;-78
2022/01/08 04:03:01;;;;;;;;;29.60;24.20;;;;;4.48;68.49;99342.19;5029589;28;9612;-77
2022/01/08 04:05:31;;;;;;;;;34.50;26.75;;;;;4.37;68.69;99340.25;4987504;28;8899;-79
2022/01/08 04:08:01;;;;;;;;;15.80;15.80;;;;;4.41;68.37;99342.03;4955644;28;8876;-79
2022/01/08 04:10:30;;;;;;;;;25.25;22.25;;;;;4.38;68.68;99344.53;4987557;28;8887;-77
2022/01/08 04:13:05;;;;;;;;;25.50;20.75;;;;;4.23;69.25;99340.78;4971169;28;8872;-78
2022/01/08 04:15:37;;;;;;;;;19.60;18.00;;;;;4.29;69.21;99337.47;4955238;28;8864;-78
2022/01/08 04:18:07;;;;;;;;;26.60;18.20;;;;;4.30;69.20;99342.66;4987452;28;8898;-76
2022/01/08 04:20:47;;;;;;;;;19.80;19.80;;;;;4.08;70.03;99332.72;4971315;28;8865;-78
2022/01/08 04:23:21;;;;;;;;;17.80;17.00;;;;;4.17;69.80;99337.22;4955107;28;8848;-79
2022/01/08 04:25:50;;;;;;;;;19.40;18.40;;;;;4.17;70.31;99332.94;5022412;28;8859;-77
2022/01/08 04:28:20;;;;;;;;;19.00;17.40;;;;;4.17;69.62;99335.50;5010255;28;8852;-76
2022/01/08 04:30:48;;;;;;;;;17.80;14.00;;;;;3.89;71.00;99336.59;4996226;28;8902;-79
2022/01/08 04:33:17;;;;;;;;;17.80;16.40;;;;;4.05;70.79;99332.66;5048747;28;8866;-79
2022/01/08 04:35:46;;;;;;;;;12.80;12.60;;;;;4.04;70.46;99328.34;5071566;28;8896;-77
2022/01/08 04:38:14;;;;;;;;;20.25;16.50;;;;;4.07;70.29;99325.84;5091388;28;8841;-75
2022/01/08 04:40:44;;;;;;;;;18.60;18.60;;;;;4.14;70.53;99326.81;5091848;28;9043;-78
2022/01/08 04:43:13;;;;;;;;;16.40;12.40;;;;;4.08;70.58;99325.88;5108350;28;8845;-79
2022/01/08 04:45:43;;;;;;;;;16.00;14.20;;;;;4.16;70.53;99325.16;5108277;28;9578;-77
2022/01/08 04:48:12;;;;;;;;;18.00;16.60;;;;;3.98;70.66;99320.47;5108535;28;8849;-78
2022/01/08 04:50:40;;;;;;;;;20.00;17.60;;;;;4.08;70.36;99322.41;5091296;28;8845;-78
2022/01/08 04:53:10;;;;;;;;;12.00;11.80;;;;;4.00;71.55;99327.41;5090142;28;9160;-80
2022/01/08 04:55:39;;;;;;;;;22.60;18.60;;;;;4.04;71.42;99321.47;5090283;28;9868;-77
2022/01/08 04:58:09;;;;;;;;;16.00;14.00;;;;;4.10;70.85;99319.03;5090421;28;8850;-79
2022/01/08 05:00:39;;;;;;;;;11.60;10.60;;;;;4.08;70.42;99328.44;5090020;28;8839;-80
2022/01/08 05:03:08;;;;;;;;;14.00;13.00;;;;;4.01;71.14;99330.88;5096827;27;8912;-77
2022/01/08 05:05:37;;;;;;;;;18.20;15.60;;;;;3.99;71.45;99330.81;5097703;27;8831;-77
2022/01/08 05:08:07;;;;;;;;;12.60;10.40;;;;;3.94;71.44;99326.41;5098148;27;8950;-77
2022/01/08 05:10:36;;;;;;;;;12.20;10.80;;;;;3.85;71.58;99316.72;5097395;27;8839;-77
2022/01/08 05:13:05;;;;;;;;;11.40;10.80;;;;;3.84;72.25;99326.19;5114861;27;8815;-78
2022/01/08 05:15:36;;;;;;;;;11.00;8.60;;;;;3.95;71.66;99334.19;5114906;27;8933;-77
2022/01/08 05:18:08;;;;;;;;;10.80;8.40;;;;;3.89;71.65;99323.69;5097710;27;9004;-77
2022/01/08 05:20:39;;;;;;;;;14.80;14.80;;;;;3.88;71.67;99328.00;5114913;27;8903;-76
2022/01/08 05:23:09;;;;;;;;;11.80;10.40;;;;;3.90;71.92;99318.59;5121391;27;8859;-77
2022/01/08 05:25:39;;;;;;;;;13.80;10.80;;;;;3.84;71.46;99315.00;5139775;27;8838;-76
2022/01/08 05:28:07;;;;;;;;;11.00;9.40;;;;;3.68;72.68;99309.47;5134474;27;8830;-78
2022/01/08 05:30:37;;;;;;;;;17.20;14.40;;;;;3.68;72.90;99313.78;5135251;27;8844;-77
2022/01/08 05:33:06;;;;;;;;;12.60;11.00;;;;;3.60;72.85;99320.47;5132820;27;8842;-78
2022/01/08 05:35:35;;;;;;;;;18.80;18.00;;;;;3.59;72.91;99319.59;5117991;27;8846;-75
2022/01/08 05:38:04;;;;;;;;;20.25;16.00;;;;;3.74;72.30;99316.47;5135294;27;8865;-78
2022/01/08 05:40:33;;;;;;;;;11.00;11.00;;;;;3.65;72.96;99312.00;5115378;27;8842;-77
2022/01/08 05:43:01;;;;;;;;;11.40;11.00;;;;;3.61;72.68;99319.59;5132330;27;8966;-77
2022/01/08 05:45:30;;;;;;;;;11.80;10.00;;;;;3.56;73.26;99314.34;5110439;28;8821;-77
2022/01/08 05:48:01;;;;;;;;;10.80;8.40;;;;;3.64;72.52;99323.13;5111207;28;8864;-77
2022/01/08 05:50:29;;;;;;;;;39.75;29.50;;;;;3.64;72.84;99322.28;5093248;28;8869;-77
2022/01/08 05:52:58;;;;;;;;;12.40;10.80;;;;;3.67;72.47;99309.47;5092961;28;8836;-76
2022/01/08 05:55:26;;;;;;;;;12.80;12.80;;;;;3.82;72.14;99319.22;5110251;28;9610;-77
2022/01/08 05:57:55;;;;;;;;;13.40;12.80;;;;;3.71;72.64;99316.44;5092835;28;8849;-79
2022/01/08 06:00:24;;;;;;;;;17.60;15.40;;;;;3.62;72.96;99319.66;5078591;28;9010;-76
2022/01/08 06:02:53;;;;;;;;;21.00;18.20;;;;;3.62;72.95;99318.78;5062525;28;8861;-80
2022/01/08 06:05:23;;;;;;;;;19.40;16.60;;;;;3.59;73.27;99322.19;5113338;28;8909;-75
2022/01/08 06:07:53;;;;;;;;;13.80;11.40;;;;;3.64;72.85;99328.28;5051714;28;8954;-82
2022/01/08 06:10:21;;;;;;;;;10.00;8.40;;;;;3.67;72.97;99322.34;5036474;28;8835;-77
2022/01/08 06:12:52;;;;;;;;;8.00;7.60;;;;;3.68;72.80;99322.38;4994655;28;8851;-78
2022/01/08 06:15:21;;;;;;;;;15.20;13.20;;;;;3.66;73.00;99313.72;4958073;28;9647;-78
2022/01/08 06:17:54;;;;;;;;;11.80;10.20;;;;;3.70;72.45;99313.00;5011976;28;8906;-79
2022/01/08 06:20:25;;;;;;;;;12.40;10.00;;;;;3.68;72.75;99316.34;5008787;28;8853;-78
2022/01/08 06:22:53;;;;;;;;;13.80;12.60;;;;;3.72;72.96;99318.16;4992536;28;8852;-77
2022/01/08 06:25:22;;;;;;;;;12.80;10.60;;;;;3.69;72.73;99316.38;5008867;28;8861;-80
2022/01/08 06:27:54;;;;;;;;;12.40;12.40;;;;;3.71;72.83;99316.44;4992591;28;8845;-78
2022/01/08 06:30:23;;;;;;;;;11.20;10.60;;;;;3.71;72.46;99312.13;4992267;28;8950;-78
2022/01/08 06:32:51;;;;;;;;;12.20;10.60;;;;;3.60;73.30;99321.31;4992182;28;8893;-79
2022/01/08 06:35:20;;;;;;;;;13.60;13.40;;;;;3.68;72.85;99324.94;4992701;28;8982;-75
2022/01/08 06:37:50;;;;;;;;;14.40;14.40;;;;;3.74;72.57;99326.78;5008491;28;8959;-77
2022/01/08 06:40:18;;;;;;;;;11.80;10.60;;;;;3.82;72.57;99327.88;5031155;28;8905;-78
2022/01/08 06:42:47;;;;;;;;;12.20;11.40;;;;;3.81;72.78;99322.66;5015244;28;8831;-78
2022/01/08 06:45:16;;;;;;;;;0.00;0.00;;;;;3.82;72.38;99321.81;5071691;28;8849;-78
2022/01/08 06:47:45;;;;;;;;;15.40;11.60;;;;;3.81;72.24;99315.78;5071260;28;8858;-77
2022/01/08 06:50:14;;;;;;;;;14.40;14.40;;;;;3.85;72.27;99312.44;5088121;28;8854;-79
2022/01/08 06:52:43;;;;;;;;;10.60;10.00;;;;;3.81;72.53;99318.38;5111684;27;8846;-77
2022/01/08 06:55:13;;;;;;;;;15.80;13.00;;;;;3.92;72.57;99310.88;5130096;27;8831;-77
2022/01/08 06:57:43;;;;;;;;;14.20;12.80;;;;;3.88;71.94;99325.41;5111782;27;8895;-77
2022/01/08 07:00:12;;;;;;;;;14.20;12.20;;;;;3.96;72.59;99317.84;5111733;27;8823;-77
2022/01/08 07:02:41;;;;;;;;;18.80;12.60;;;;;4.07;71.83;99318.97;5094590;27;8835;-77
2022/01/08 07:05:11;;;;;;;;;16.40;12.20;;;;;4.10;71.96;99326.78;5111699;27;8835;-78
2022/01/08 07:07:39;;;;;;;;;14.20;13.60;;;;;4.12;71.61;99321.66;5128742;27;8835;-79
2022/01/08 07:10:09;;;;;;;;;10.20;8.60;;;;;4.19;71.13;99315.75;5094567;27;8851;-78
2022/01/08 07:12:39;;;;;;;;;16.20;14.80;;;;;4.28;71.25;99308.22;5112132;27;8863;-78
2022/01/08 07:15:09;;;;;;;;;15.20;14.40;;;;;4.17;71.75;99314.00;5094412;27;8863;-77
2022/01/08 07:17:38;;;;;;;;;14.40;13.20;;;;;4.22;71.30;99314.97;5129000;27;8831;-77
2022/01/08 07:20:09;;;;;;;;;17.80;15.80;;;;;4.25;71.30;99312.44;5078325;27;8827;-77
2022/01/08 07:22:37;;;;;;;;;16.60;15.80;;;;;4.20;71.38;99314.94;5111422;27;8857;-77
2022/01/08 07:25:07;;;;;;;;;14.80;13.20;;;;;4.29;70.89;99309.97;5110445;27;8861;-78
2022/01/08 07:27:36;;;;;;;;;11.40;10.00;;;;;4.30;70.81;99305.66;5077448;27;8865;-78
2022/01/08 07:30:08;;;;;;;;;14.20;12.40;;;;;4.29;71.26;99309.97;5094473;27;8970;-80
2022/01/08 07:32:41;;;;;;;;;20.00;19.40;;;;;4.25;71.61;99305.59;5061748;27;8977;-79
2022/01/08 07:35:11;;;;;;;;;14.80;14.40;;;;;4.34;70.82;99304.03;5095099;28;8871;-78
2022/01/08 07:37:40;;;;;;;;;12.80;12.80;;;;;4.49;70.62;99306.91;5041202;28;8820;-78
2022/01/08 07:40:11;;;;;;;;;18.75;18.75;;;;;4.57;70.49;99302.75;5090533;28;8943;-78
2022/01/08 07:42:40;;;;;;;;;13.40;13.20;;;;;4.73;69.69;99301.38;5040525;28;8990;-77
2022/01/08 07:45:17;;;;;;;;;11.60;7.60;;;;;4.88;69.50;99301.66;5073591;28;9103;-77
2022/01/08 07:47:46;;;;;;;;;22.75;19.50;;;;;4.96;68.74;99301.78;5086769;28;8861;-77
2022/01/08 07:50:15;;;;;;;;;24.75;19.50;;;;;5.00;68.96;99301.00;5087313;28;8858;-79
2022/01/08 07:52:44;;;;;;;;;23.00;22.50;;;;;4.92;68.43;99302.56;5070201;28;8972;-79
2022/01/08 07:55:14;;;;;;;;;21.50;20.75;;;;;5.04;68.80;99304.50;5070005;28;9714;-77
2022/01/08 07:57:43;;;;;;;;;26.50;25.25;;;;;5.15;67.87;99304.69;5087105;28;8834;-80
2022/01/08 08:00:12;;;;;;;;;24.75;21.50;;;;;5.19;68.13;99297.00;5070224;28;8858;-79
2022/01/08 08:02:42;;;;;;;;;29.00;23.50;;;;;5.29;67.70;99303.19;5020453;28;8869;-78
2022/01/08 08:05:12;;;;;;;;;21.50;19.00;;;;;5.33;67.59;99305.00;5070160;28;8849;-76
2022/01/08 08:07:41;;;;;;;;;28.50;27.25;;;;;5.37;67.42;99295.56;5053280;28;8838;-79
2022/01/08 08:10:12;;;;;;;;;26.50;25.50;;;;;5.38;67.48;99292.16;5070155;28;8880;-78
2022/01/08 08:12:42;;;;;;;;;26.00;23.75;;;;;5.42;67.13;99294.78;5078563;28;8836;-77
2022/01/08 08:15:15;;;;;;;;;21.50;21.00;;;;;5.45;66.92;99294.84;5073858;28;8852;-77
2022/01/08 08:17:45;;;;;;;;;25.75;23.75;;;;;5.50;67.18;99300.13;5090347;28;8852;-77
2022/01/08 08:20:14;;;;;;;;;17.75;15.00;;;;;5.56;66.68;99295.03;5130696;27;8842;-77
2022/01/08 08:22:43;;;;;;;;;25.60;21.20;;;;;5.53;66.86;99294.97;5111796;27;9572;-78
2022/01/08 08:25:13;;;;;;;;;27.00;23.60;;;;;5.50;66.67;99297.53;5111839;27;8889;-78
2022/01/08 08:27:41;;;;;;;;;33.50;30.25;;;;;5.53;66.89;99288.94;5128975;27;8831;-78
2022/01/08 08:30:11;;;;;;;;;21.25;18.75;;;;;5.58;66.79;99288.16;5128990;27;8839;-79
2022/01/08 08:32:40;;;;;;;;;28.75;24.00;;;;;5.53;67.16;99287.22;5128870;27;8866;-77
2022/01/08 08:35:11;;;;;;;;;27.75;26.25;;;;;5.56;66.73;99279.50;5128584;27;8858;-78
2022/01/08 08:37:40;;;;;;;;;34.50;29.25;;;;;5.58;66.92;99279.53;5079825;27;8850;-75
2022/01/08 08:40:11;;;;;;;;;32.00;30.25;;;;;5.62;67.09;99277.00;5133151;27;9730;-79
2022/01/08 08:42:41;;;;;;;;;35.00;33.25;;;;;5.75;66.48;99274.63;5116130;27;8831;-79
2022/01/08 08:45:11;;;;;;;;;25.25;20.00;;;;;5.90;66.26;99279.13;5132771;27;8873;-80
2022/01/08 08:47:40;;;;;;;;;28.50;26.50;;;;;5.94;65.75;99276.59;5115632;27;8873;-78
2022/01/08 08:50:13;;;;;;;;;28.25;24.50;;;;;6.08;65.69;99271.63;5132597;27;8934;-80
2022/01/08 08:52:42;;;;;;;;;24.25;21.25;;;;;6.07;65.66;99271.63;5132931;27;8846;-78
2022/01/08 08:55:13;;;;;;;;;28.25;27.25;;;;;6.20;65.60;99277.00;5115681;27;8856;-76
2022/01/08 08:57:42;;;;;;;;;31.50;28.25;;;;;6.33;65.20;99279.72;5115583;27;8865;-77
2022/01/08 09:00:12;;;;;;;;;37.75;31.50;;;;;6.40;64.59;99273.75;5132753;27;8839;-77
2022/01/08 09:02:41;;;;;;;;;20.40;19.20;;;;;6.39;64.05;99277.19;5093001;28;8881;-80
2022/01/08 09:05:12;;;;;;;;;28.75;25.75;;;;;6.43;64.19;99272.09;5093520;28;8909;-77
2022/01/08 09:07:41;;;;;;;;;27.20;26.20;;;;;6.45;64.08;99266.94;5076764;28;8838;-80
2022/01/08 09:10:11;;;;;;;;;12.50;11.25;;;;;6.54;63.79;99273.91;5110679;28;9754;-78
2022/01/08 09:12:42;;;;;;;;;33.60;30.40;;;;;6.56;63.45;99261.84;5076866;28;9735;-78
2022/01/08 09:15:12;;;;;;;;;39.25;37.75;;;;;6.48;63.54;99264.34;5093577;28;8843;-77
2022/01/08 09:17:41;;;;;;;;;33.25;30.50;;;;;6.47;63.42;99264.34;5076925;28;8818;-78
2022/01/08 09:20:12;;;;;;;;;32.25;31.00;;;;;6.51;63.33;99261.81;5060429;28;8958;-78
2022/01/08 09:22:41;;;;;;;;;30.50;29.00;;;;;6.51;63.11;99250.59;5093153;28;8866;-76
2022/01/08 09:25:11;;;;;;;;;35.00;32.75;;;;;6.52;63.16;99258.38;5093293;28;9685;-77
2022/01/08 09:27:40;;;;;;;;;34.75;34.50;;;;;6.49;63.22;99253.16;5076189;28;8968;-77
2022/01/08 09:30:09;;;;;;;;;44.25;39.25;;;;;6.53;63.30;99251.47;5075840;28;8858;-79
2022/01/08 09:32:38;;;;;;;;;35.25;30.00;;;;;6.51;63.45;99253.19;5093093;28;9696;-79
2022/01/08 09:35:08;;;;;;;;;40.00;35.00;;;;;6.55;63.45;99254.94;5059415;28;8838;-76
2022/01/08 09:37:39;;;;;;;;;38.25;38.25;;;;;6.65;62.99;99241.22;5109959;28;8943;-79
2022/01/08 09:40:10;;;;;;;;;44.75;40.50;;;;;6.66;63.22;99236.94;5097948;28;9608;-81
2022/01/08 09:42:41;;;;;;;;;51.25;44.25;;;;;6.69;62.89;99234.34;5094276;28;8956;-76
2022/01/08 09:45:11;;;;;;;;;43.00;39.00;;;;;6.79;62.70;99238.78;5093594;28;8855;-78
2022/01/08 09:47:40;;;;;;;;;44.00;41.25;;;;;6.82;63.22;99236.19;5111964;28;8848;-76
2022/01/08 09:50:10;;;;;;;;;47.00;41.75;;;;;6.78;62.75;99239.63;5093013;28;8991;-81
2022/01/08 09:52:40;;;;;;;;;39.50;38.75;;;;;6.74;63.22;99236.13;5059177;28;9582;-78
2022/01/08 09:55:10;;;;;;;;;41.50;38.75;;;;;6.75;63.04;99235.28;5111078;28;8845;-78
2022/01/08 09:57:38;;;;;;;;;39.75;32.75;;;;;6.75;62.50;99232.69;5094136;28;8865;-78
2022/01/08 10:00:16;;;;;;;;;40.50;35.50;;;;;6.60;62.97;99236.00;5093450;28;8833;-79
2022/01/08 10:02:45;;;;;;;;;42.75;33.50;;;;;6.46;63.47;99237.56;5046934;27;8853;-77
2022/01/08 10:05:16;;;;;;;;;33.75;28.00;;;;;6.39;63.60;99233.16;5117324;27;8831;-77
2022/01/08 10:07:58;;;;;;;;;37.75;31.75;;;;;6.36;63.90;99228.81;5099875;27;8831;-79
2022/01/08 10:10:27;;;;;;;;;35.75;31.00;;;;;6.31;63.54;99227.91;5117295;27;8825;-78
2022/01/08 10:13:00;;;;;;;;;35.50;29.50;;;;;6.21;64.21;99218.31;5134549;27;8862;-75
2022/01/08 10:18:25;;;;;;;;;47.00;40.50;;;;;6.23;64.46;99216.59;5152882;27;8827;-79
2022/01/08 10:20:55;;;;;;;;;36.50;35.75;;;;;6.27;64.33;99212.31;5134275;27;8854;-77
2022/01/08 10:23:28;;;;;;;;;44.50;36.75;;;;;6.29;64.20;99216.66;5117177;27;8847;-78
2022/01/08 10:26:01;;;;;;;;;35.00;31.75;;;;;6.22;64.37;99217.47;5152525;27;8839;-77
2022/01/08 10:28:38;;;;;;;;;43.50;41.00;;;;;6.21;64.48;99216.56;5088042;28;8974;-77
2022/01/08 10:31:22;;;;;;;;;38.00;34.00;;;;;6.38;64.32;99218.50;5071523;28;8830;-79
2022/01/08 10:33:53;;;;;;;;;34.50;31.50;;;;;6.38;63.66;99213.31;5071572;28;8986;-78
2022/01/08 10:36:27;;;;;;;;;36.75;32.75;;;;;6.40;63.46;99211.59;5022153;28;8865;-79
2022/01/08 10:39:00;;;;;;;;;36.25;31.00;;;;;6.49;63.54;99203.94;5054553;28;8858;-79
2022/01/08 10:41:30;;;;;;;;;31.50;31.00;;;;;6.54;63.27;99207.44;5055004;28;8857;-78
2022/01/08 10:44:07;;;;;;;;;40.50;35.25;;;;;6.61;62.84;99206.63;5032361;28;8866;-78
2022/01/08 10:46:36;;;;;;;;;34.75;33.75;;;;;6.61;62.67;99192.81;5032514;28;8977;-77
2022/01/08 10:49:06;;;;;;;;;33.50;33.00;;;;;6.66;62.78;99196.34;4998418;28;8855;-78
2022/01/08 10:51:37;;;;;;;;;40.25;36.25;;;;;6.73;62.43;99187.78;5031790;28;9002;-76
2022/01/08 10:54:10;;;;;;;;;43.25;41.00;;;;;6.75;62.44;99177.44;5015239;28;8891;-78
2022/01/08 10:56:42;;;;;;;;;40.00;35.50;;;;;6.78;62.17;99175.69;5031500;28;8882;-78
2022/01/08 10:59:16;;;;;;;;;41.00;36.25;;;;;6.74;62.07;99173.94;5048258;28;8833;-79
2022/01/08 11:01:48;;;;;;;;;38.50;36.00;;;;;6.81;61.79;99177.47;5108333;28;8817;-75
2022/01/08 11:04:20;;;;;;;;;54.50;45.50;;;;;6.76;62.61;99173.97;5090934;28;8841;-78
2022/01/08 11:06:57;;;;;;;;;37.50;37.00;;;;;6.84;62.13;99174.88;5091089;28;9065;-80
2022/01/08 11:09:29;;;;;;;;;39.33;34.33;;;;;6.81;62.04;99169.69;5090750;28;9591;-78
2022/01/08 11:12:00;;;;;;;;;43.75;39.50;;;;;6.80;61.89;99173.13;5090786;28;8833;-76
2022/01/08 11:17:35;;;;;;;;;31.75;29.25;;;;;6.78;61.83;99170.50;5132862;27;8861;-80
2022/01/08 11:20:07;;;;;;;;;39.50;33.00;;;;;6.82;61.85;99171.41;5133116;27;8854;-77
2022/01/08 11:22:39;;;;;;;;;31.75;27.00;;;;;6.78;62.12;99167.94;5130301;27;8870;-77
2022/01/08 11:25:11;;;;;;;;;37.00;35.50;;;;;6.80;61.92;99167.94;5133018;27;8819;-79
2022/01/08 11:27:47;;;;;;;;;33.75;33.75;;;;;6.79;61.73;99169.69;5115551;27;8902;-77
2022/01/08 11:30:20;;;;;;;;;37.25;36.50;;;;;6.76;61.50;99169.63;5132773;27;8907;-79
2022/01/08 11:32:50;;;;;;;;;36.50;34.50;;;;;6.80;61.68;99175.72;5099454;27;8835;-79
2022/01/08 11:35:36;;;;;;;;;38.50;35.50;;;;;6.72;61.98;99173.06;5116180;27;8823;-77
2022/01/08 11:38:07;;;;;;;;;22.50;20.25;;;;;6.72;61.81;99167.88;5115868;27;8839;-78
2022/01/08 11:40:40;;;;;;;;;46.25;41.00;;;;;6.75;62.65;99162.72;5115478;27;8911;-77
2022/01/08 11:43:13;;;;;;;;;48.50;41.50;;;;;6.74;62.30;99153.22;5115387;27;8839;-79
2022/01/08 11:45:47;;;;;;;;;38.50;37.50;;;;;6.72;62.04;99151.47;5115807;27;8866;-79
2022/01/08 11:48:18;;;;;;;;;42.75;40.50;;;;;6.65;62.44;99145.34;5115574;27;8965;-81
2022/01/08 11:50:52;;;;;;;;;50.25;40.50;;;;;6.70;62.74;99151.47;5132861;27;8844;-80
2022/01/08 11:53:22;;;;;;;;;49.00;42.25;;;;;6.64;62.26;99147.09;5115319;27;8839;-78
2022/01/08 11:55:55;;;;;;;;;48.00;40.25;;;;;6.55;62.37;99139.22;5115543;27;8827;-78
2022/01/08 11:58:26;;;;;;;;;43.75;37.75;;;;;6.49;62.11;99143.50;5107100;28;8837;-77
2022/01/08 12:00:58;;;;;;;;;50.25;43.25;;;;;6.36;62.59;99142.50;5066737;28;8876;-77
2022/01/08 12:03:32;;;;;;;;;42.00;36.25;;;;;6.38;62.70;99140.81;5049580;28;9008;-77
2022/01/08 12:06:38;;;;;;;;;64.00;50.75;;;;;6.49;62.79;99138.31;5066491;28;8842;-77
2022/01/08 12:09:29;;;;;;;;;20.25;12.75;;;;;6.41;63.39;99133.06;5066608;28;8821;-78
2022/01/08 12:12:04;;;;;;;;;76.75;62.25;;;;;6.45;63.41;99132.25;5049328;28;8845;-79